createdAt,value
2022-09-09T00:03:19.519Z,7.60
2022-09-09T00:08:32.671Z,8.30
2022-09-09T00:13:43.750Z,5.80
2022-09-09T00:19:19.233Z,6.90
2022-09-09T00:24:45.128Z,6.40
2022-09-09T00:30:15.291Z,6.60
2022-09-09T00:35:24.910Z,6.30
2022-09-09T00:40:33.126Z,6.00
2022-09-09T00:46:03.858Z,10.30
2022-09-09T00:51:24.893Z,7.10
2022-09-09T00:57:03.307Z,5.30
2022-09-09T01:02:23.463Z,6.60
2022-09-09T01:07:27.354Z,6.60
2022-09-09T01:12:44.843Z,6.90
2022-09-09T01:17:59.185Z,6.60
2022-09-09T01:23:36.570Z,8.90
2022-09-09T01:28:55.697Z,6.70
2022-09-09T01:34:12.715Z,5.70
2022-09-09T01:39:16.339Z,6.80
2022-09-09T01:44:21.102Z,6.50
2022-09-09T01:49:24.822Z,5.90
2022-09-09T01:54:31.043Z,5.90
2022-09-09T02:00:11.773Z,6.60
2022-09-09T02:05:38.052Z,7.80
2022-09-09T02:10:59.747Z,7.70
2022-09-09T02:16:25.752Z,8.50
2022-09-09T02:21:33.032Z,7.60
2022-09-09T02:26:41.541Z,7.40
2022-09-09T02:31:48.425Z,7.60
2022-09-09T02:36:56.391Z,7.00
2022-09-09T02:41:59.312Z,5.90
2022-09-09T02:47:29.689Z,8.00
2022-09-09T02:53:00.260Z,6.50
2022-09-09T02:58:08.199Z,8.80
2022-09-09T03:03:12.037Z,5.70
2022-09-09T03:08:15.615Z,6.50
2022-09-09T03:13:20.410Z,7.80
2022-09-09T03:18:24.182Z,7.00
2022-09-09T03:23:29.246Z,7.40
2022-09-09T03:28:34.303Z,7.50
2022-09-09T03:33:39.265Z,10.40
2022-09-09T03:38:42.962Z,8.30
2022-09-09T03:43:46.001Z,8.10
2022-09-09T03:48:49.100Z,10.80
2022-09-09T03:53:52.115Z,10.50
2022-09-09T03:58:55.193Z,7.80
2022-09-09T04:03:59.302Z,7.30
2022-09-09T04:09:04.348Z,8.00
2022-09-09T04:14:07.743Z,9.20
2022-09-09T04:19:14.767Z,9.30
2022-09-09T04:24:18.738Z,11.40
2022-09-09T04:29:21.828Z,10.10
2022-09-09T04:34:24.816Z,8.60
2022-09-09T04:39:31.931Z,11.30
2022-09-09T04:44:35.721Z,8.30
2022-09-09T04:49:39.558Z,11.10
2022-09-09T04:54:42.757Z,9.60
2022-09-09T04:59:46.936Z,9.70
2022-09-09T05:04:50.850Z,10.40
2022-09-09T05:09:53.891Z,13.80
2022-09-09T05:14:56.763Z,8.80
2022-09-09T05:19:59.873Z,11.20
2022-09-09T05:25:03.220Z,14.20
2022-09-09T05:30:07.516Z,9.40
2022-09-09T05:35:11.241Z,9.50
2022-09-09T05:40:15.696Z,11.50
2022-09-09T05:45:18.596Z,10.30
2022-09-09T05:50:21.573Z,12.40
2022-09-09T05:55:26.645Z,13.10
2022-09-09T06:00:32.715Z,16.40
2022-09-09T06:05:36.290Z,13.60
2022-09-09T06:10:39.241Z,16.90
2022-09-09T06:15:51.231Z,16.40
2022-09-09T06:21:02.127Z,17.50
2022-09-09T06:26:09.199Z,12.90
2022-09-09T06:31:14.892Z,13.40
2022-09-09T06:36:19.514Z,16.30
2022-09-09T06:41:23.939Z,16.10
2022-09-09T06:46:29.415Z,24.50
2022-09-09T06:51:35.783Z,13.50
2022-09-09T06:56:44.643Z,11.40
2022-09-09T07:01:58.136Z,17.10
2022-09-09T07:07:02.624Z,12.70
2022-09-09T07:12:06.966Z,9.60
2022-09-09T07:17:10.720Z,10.00
2022-09-09T07:22:15.681Z,9.60
2022-09-09T07:27:19.025Z,15.70
2022-09-09T07:32:24.424Z,12.30
2022-09-09T07:37:27.827Z,10.50
2022-09-09T07:42:31.156Z,12.70
2022-09-09T07:47:34.725Z,12.90
2022-09-09T07:52:38.607Z,12.60
2022-09-09T07:57:42.265Z,12.70
2022-09-09T08:02:45.780Z,13.50
2022-09-09T08:07:49.329Z,12.40
2022-09-09T08:13:14.921Z,9.00
2022-09-09T08:18:16.652Z,12.30
2022-09-09T08:23:20.307Z,8.80
2022-09-09T08:28:23.274Z,6.70
2022-09-09T08:33:26.728Z,10.10
2022-09-09T08:38:29.773Z,9.60
2022-09-09T08:43:34.416Z,4.40
2022-09-09T08:48:49.970Z,6.80
2022-09-09T08:53:59.018Z,4.00
2022-09-09T08:59:04.486Z,4.90
2022-09-09T09:04:40.705Z,3.10
2022-09-09T09:10:00.286Z,7.00
2022-09-09T09:15:18.197Z,7.70
2022-09-09T09:20:45.253Z,5.90
2022-09-09T09:25:51.244Z,4.00
2022-09-09T09:31:02.806Z,4.40
2022-09-09T09:36:09.215Z,6.40
2022-09-09T09:41:12.517Z,6.70
2022-09-09T09:46:24.851Z,3.60
2022-09-09T09:51:31.437Z,9.00
2022-09-09T09:56:34.682Z,4.40
2022-09-09T10:02:18.322Z,4.90
2022-09-09T10:07:23.656Z,4.10
2022-09-09T10:13:02.061Z,7.30
2022-09-09T10:18:23.105Z,4.70
2022-09-09T10:23:28.709Z,5.80
2022-09-09T10:28:50.500Z,4.90
2022-09-09T10:34:18.320Z,5.10
2022-09-09T10:39:39.223Z,3.40
2022-09-09T10:45:09.426Z,2.90
2022-09-09T10:50:28.076Z,2.80
2022-09-09T10:55:46.470Z,1.50
2022-09-09T11:00:58.281Z,2.50
2022-09-09T11:06:07.862Z,5.10
2022-09-09T11:11:33.261Z,3.10
2022-09-09T11:16:49.709Z,3.20
2022-09-09T11:21:54.407Z,3.00
2022-09-09T11:27:04.202Z,3.90
2022-09-09T11:32:48.290Z,6.10
2022-09-09T11:38:06.136Z,4.00
2022-09-09T11:43:32.061Z,3.10
2022-09-09T11:53:29.196Z,1.10
2022-09-09T11:58:39.294Z,1.90
2022-09-09T12:03:47.967Z,4.20
2022-09-09T12:08:58.233Z,2.50
2022-09-09T12:14:02.327Z,0.80
2022-09-09T12:19:06.816Z,1.60
2022-09-09T12:24:20.060Z,1.80
2022-09-09T12:29:34.295Z,3.90
2022-09-09T12:34:42.684Z,2.20
2022-09-09T12:39:52.402Z,4.40
2022-09-09T12:45:18.103Z,3.80
2022-09-09T12:50:27.354Z,3.20
2022-09-09T12:55:34.469Z,3.40
2022-09-09T13:00:37.420Z,1.20
2022-09-09T13:05:40.399Z,4.30
2022-09-09T13:10:58.670Z,1.80
2022-09-09T13:16:09.537Z,2.30
2022-09-09T13:21:12.979Z,3.20
2022-09-09T13:26:24.286Z,4.10
2022-09-09T13:31:33.801Z,2.00
2022-09-09T13:36:36.896Z,1.70
2022-09-09T13:41:49.584Z,2.80
2022-09-09T13:47:10.572Z,3.90
2022-09-09T13:52:19.944Z,5.80
2022-09-09T13:57:26.337Z,3.60
2022-09-09T14:02:29.381Z,7.10
2022-09-09T14:07:33.188Z,1.90
2022-09-09T14:12:37.430Z,3.70
2022-09-09T14:17:40.414Z,3.60
2022-09-09T14:22:43.309Z,1.50
2022-09-09T14:27:47.042Z,5.40
2022-09-09T14:32:50.037Z,5.20
2022-09-09T14:37:52.905Z,3.30
2022-09-09T14:42:57.476Z,3.70
2022-09-09T14:48:00.986Z,4.50
2022-09-09T14:53:03.948Z,4.70
2022-09-09T14:58:07.387Z,4.60
2022-09-09T15:03:11.893Z,2.80
2022-09-09T15:08:17.163Z,3.60
2022-09-09T15:13:20.037Z,1.70
2022-09-09T15:18:22.901Z,2.50
2022-09-09T15:23:26.129Z,2.80
2022-09-09T15:28:29.653Z,4.20
2022-09-09T15:33:33.132Z,2.10
2022-09-09T15:38:35.915Z,4.30
2022-09-09T15:43:40.321Z,1.60
2022-09-09T15:48:46.661Z,3.00
2022-09-09T15:53:58.655Z,4.60
2022-09-09T15:59:04.809Z,3.20
2022-09-09T16:04:07.765Z,6.80
2022-09-09T16:09:11.309Z,2.20
2022-09-09T16:14:16.711Z,2.10
2022-09-09T16:19:20.190Z,2.70
2022-09-09T16:24:24.731Z,3.50
2022-09-09T16:29:28.434Z,2.40
2022-09-09T16:34:31.910Z,3.10
2022-09-09T16:39:34.997Z,6.90
2022-09-09T16:44:38.336Z,3.80
2022-09-09T16:49:41.787Z,5.50
2022-09-09T16:54:46.346Z,3.60
2022-09-09T16:59:50.284Z,5.00
2022-09-09T17:04:53.656Z,5.20
2022-09-09T17:09:56.807Z,6.00
2022-09-09T17:15:01.783Z,4.00
2022-09-09T17:20:07.302Z,6.70
2022-09-09T17:30:13.702Z,7.50
2022-09-09T17:35:17.409Z,5.80
2022-09-09T17:40:21.420Z,7.70
2022-09-09T17:45:24.350Z,5.50
2022-09-09T17:50:27.485Z,5.40
2022-09-09T17:55:30.292Z,7.70
2022-09-09T18:00:33.335Z,11.10
2022-09-09T18:05:36.196Z,6.20
2022-09-09T18:10:39.717Z,12.20
2022-09-09T18:15:49.221Z,6.90
2022-09-09T18:20:59.858Z,8.80
2022-09-09T18:26:11.140Z,7.80
2022-09-09T18:31:16.039Z,6.10
2022-09-09T18:36:44.487Z,6.10
2022-09-09T18:41:50.379Z,5.90
2022-09-09T18:46:54.518Z,7.70
2022-09-09T18:51:58.074Z,7.70
2022-09-09T18:57:01.596Z,8.40
2022-09-09T19:02:04.894Z,7.60
2022-09-09T19:07:08.004Z,7.00
2022-09-09T19:12:11.170Z,8.80
2022-09-09T19:17:14.214Z,7.30
2022-09-09T19:22:17.902Z,7.10
2022-09-09T19:27:20.819Z,7.50
2022-09-09T19:37:47.814Z,7.30
2022-09-09T19:42:53.566Z,9.30
2022-09-09T19:47:56.466Z,7.20
2022-09-09T19:53:00.238Z,9.10
2022-09-09T19:58:04.393Z,10.00
2022-09-09T20:03:18.590Z,11.80
2022-09-09T20:13:25.794Z,11.00
2022-09-09T20:18:33.131Z,9.70
2022-09-09T20:23:37.555Z,12.60
2022-09-09T20:28:42.379Z,14.30
2022-09-09T20:33:48.150Z,16.70
2022-09-09T20:38:57.978Z,16.40
2022-09-09T20:44:07.887Z,13.00
2022-09-09T20:49:12.008Z,15.80
2022-09-09T20:54:18.158Z,15.10
2022-09-09T20:59:23.675Z,12.10
2022-09-09T21:04:26.773Z,12.00
2022-09-09T21:09:29.664Z,11.60
2022-09-09T21:14:32.776Z,12.20
2022-09-09T21:19:35.868Z,11.20
2022-09-09T21:24:38.765Z,11.20
2022-09-09T21:29:42.454Z,15.60
2022-09-09T21:34:46.131Z,14.70
2022-09-09T21:39:48.977Z,13.20
2022-09-09T21:44:51.869Z,10.70
2022-09-09T21:49:54.699Z,12.60
2022-09-09T21:54:58.102Z,15.70
2022-09-09T22:00:01.256Z,13.10
2022-09-09T22:05:05.206Z,16.60
2022-09-09T22:10:10.136Z,13.90
2022-09-09T22:15:13.419Z,14.20
2022-09-09T22:20:16.461Z,13.00
2022-09-09T22:25:19.530Z,14.70
2022-09-09T22:30:22.467Z,16.10
2022-09-09T22:35:25.333Z,15.30
2022-09-09T22:40:28.187Z,26.90
2022-09-09T22:45:32.671Z,18.80
2022-09-09T22:50:41.942Z,19.00
2022-09-09T22:55:59.499Z,14.90
2022-09-09T23:01:15.545Z,56.10
2022-09-09T23:06:24.461Z,30.60
2022-09-09T23:11:31.790Z,21.00
2022-09-09T23:16:45.398Z,19.30
2022-09-09T23:21:48.612Z,18.80
2022-09-09T23:26:53.050Z,17.40
2022-09-09T23:31:55.970Z,16.70
2022-09-09T23:36:58.919Z,19.80
2022-09-09T23:42:06.146Z,19.90
2022-09-09T23:47:09.584Z,21.70
2022-09-09T23:52:12.718Z,21.20
2022-09-09T23:57:15.549Z,19.60
